createdAt,value
2018-02-26T00:02:17.645Z,19.73
2018-02-26T00:04:46.227Z,7.70
2018-02-26T00:07:14.606Z,6.90
2018-02-26T00:09:42.929Z,7.03
2018-02-26T00:12:11.289Z,6.77
2018-02-26T00:14:39.608Z,8.17
2018-02-26T00:17:07.923Z,7.90
2018-02-26T00:19:37.146Z,6.77
2018-02-26T00:22:05.459Z,7.70
2018-02-26T00:24:33.765Z,7.23
2018-02-26T00:27:02.080Z,8.07
2018-02-26T00:29:30.405Z,6.50
2018-02-26T00:31:59.470Z,9.57
2018-02-26T00:34:27.781Z,8.57
2018-02-26T00:36:56.955Z,6.77
2018-02-26T00:39:25.618Z,10.00
2018-02-26T00:41:53.992Z,7.90
2018-02-26T00:44:22.370Z,7.00
2018-02-26T00:46:50.803Z,8.60
2018-02-26T00:49:19.139Z,8.07
2018-02-26T00:51:47.476Z,9.57
2018-02-26T00:54:15.797Z,7.27
2018-02-26T00:56:44.141Z,9.20
2018-02-26T00:59:13.294Z,10.13
2018-02-26T01:01:41.627Z,9.43
2018-02-26T01:04:09.953Z,8.10
2018-02-26T01:06:38.297Z,8.50
2018-02-26T01:09:07.549Z,10.20
2018-02-26T01:11:35.858Z,7.57
2018-02-26T01:14:04.202Z,11.70
2018-02-26T01:16:32.612Z,9.90
2018-02-26T01:19:01.673Z,11.50
2018-02-26T01:21:30.001Z,9.60
2018-02-26T01:23:58.330Z,9.90
2018-02-26T01:26:26.664Z,9.73
2018-02-26T01:28:55.104Z,5.17
2018-02-26T01:31:23.564Z,8.60
2018-02-26T01:33:52.025Z,9.03
2018-02-26T01:36:20.370Z,7.60
2018-02-26T01:38:48.810Z,8.40
2018-02-26T01:41:17.244Z,11.73
2018-02-26T01:43:45.656Z,12.10
2018-02-26T01:46:14.146Z,9.70
2018-02-26T01:48:42.454Z,9.33
2018-02-26T01:51:17.617Z,7.70
2018-02-26T01:53:45.991Z,7.83
2018-02-26T01:56:14.333Z,8.57
2018-02-26T01:58:42.999Z,9.97
2018-02-26T02:01:12.106Z,7.93
2018-02-26T02:03:40.467Z,8.10
2018-02-26T02:06:09.588Z,8.20
2018-02-26T02:08:37.923Z,9.10
2018-02-26T02:11:06.263Z,8.80
2018-02-26T02:13:35.428Z,10.37
2018-02-26T02:16:03.752Z,7.83
2018-02-26T02:18:32.930Z,9.00
2018-02-26T02:21:01.257Z,10.10
2018-02-26T02:23:30.346Z,8.20
2018-02-26T02:25:59.428Z,8.50
2018-02-26T02:28:27.744Z,7.93
2018-02-26T02:30:56.052Z,13.00
2018-02-26T02:33:25.175Z,8.47
2018-02-26T02:35:53.610Z,8.57
2018-02-26T02:38:21.973Z,9.23
2018-02-26T02:40:50.337Z,7.93
2018-02-26T02:43:19.511Z,7.53
2018-02-26T02:45:47.867Z,6.70
2018-02-26T02:48:16.185Z,7.80
2018-02-26T02:50:44.497Z,5.57
2018-02-26T02:53:12.806Z,8.30
2018-02-26T02:55:42.258Z,7.30
2018-02-26T02:58:10.594Z,8.63
2018-02-26T03:00:38.915Z,8.20
2018-02-26T03:03:07.244Z,6.43
2018-02-26T03:05:35.681Z,7.30
2018-02-26T03:08:04.054Z,7.43
2018-02-26T03:10:32.418Z,8.27
2018-02-26T03:13:00.701Z,8.23
2018-02-26T03:15:29.005Z,7.80
2018-02-26T03:17:57.312Z,8.00
2018-02-26T03:20:25.632Z,7.60
2018-02-26T03:22:54.719Z,7.90
2018-02-26T03:25:23.981Z,30.50
2018-02-26T03:27:52.380Z,8.43
2018-02-26T03:30:20.713Z,8.53
2018-02-26T03:32:49.084Z,7.77
2018-02-26T03:35:18.312Z,6.67
2018-02-26T03:37:46.732Z,7.50
2018-02-26T03:40:15.819Z,7.37
2018-02-26T03:42:44.128Z,14.23
2018-02-26T03:45:13.203Z,8.37
2018-02-26T03:47:41.516Z,5.80
2018-02-26T03:50:10.251Z,7.80
2018-02-26T03:52:38.574Z,12.00
2018-02-26T03:55:06.883Z,8.00
2018-02-26T03:57:35.200Z,7.53
2018-02-26T04:02:51.123Z,7.07
2018-02-26T04:05:19.494Z,6.57
2018-02-26T04:07:47.852Z,7.70
2018-02-26T04:10:16.171Z,7.90
2018-02-26T04:12:44.639Z,6.40
2018-02-26T04:15:13.005Z,7.10
2018-02-26T04:17:42.351Z,8.57
2018-02-26T04:20:10.677Z,7.50
2018-02-26T04:22:39.042Z,6.87
2018-02-26T04:25:07.555Z,7.23
2018-02-26T04:27:35.865Z,6.50
2018-02-26T04:30:04.221Z,5.57
2018-02-26T04:32:32.530Z,4.03
2018-02-26T04:35:00.890Z,6.43
2018-02-26T04:37:29.270Z,7.60
2018-02-26T04:39:57.588Z,5.60
2018-02-26T04:42:25.884Z,3.40
2018-02-26T04:44:54.230Z,5.70
2018-02-26T04:47:22.546Z,5.50
2018-02-26T04:49:50.958Z,4.20
2018-02-26T04:52:19.301Z,6.67
2018-02-26T04:54:47.631Z,5.00
2018-02-26T04:57:15.964Z,4.27
2018-02-26T04:59:45.235Z,6.17
2018-02-26T05:02:13.623Z,6.57
2018-02-26T05:04:42.040Z,7.10
2018-02-26T05:07:10.345Z,8.13
2018-02-26T05:09:39.439Z,5.00
2018-02-26T05:12:07.752Z,7.10
2018-02-26T05:14:36.819Z,6.50
2018-02-26T05:17:05.295Z,5.87
2018-02-26T05:19:33.612Z,6.53
2018-02-26T05:22:01.962Z,6.03
2018-02-26T05:24:30.282Z,6.33
2018-02-26T05:26:58.590Z,6.53
2018-02-26T05:29:26.962Z,7.30
2018-02-26T05:31:55.317Z,5.20
2018-02-26T05:34:23.627Z,5.40
2018-02-26T05:36:51.974Z,7.13
2018-02-26T05:39:20.308Z,6.97
2018-02-26T05:41:48.770Z,7.00
2018-02-26T05:44:17.947Z,6.00
2018-02-26T05:46:46.292Z,6.23
2018-02-26T05:49:14.598Z,7.10
2018-02-26T05:51:42.911Z,7.60
2018-02-26T05:54:11.300Z,5.73
2018-02-26T05:56:39.790Z,6.20
2018-02-26T05:59:08.215Z,4.70
2018-02-26T06:01:37.407Z,7.47
2018-02-26T06:04:05.731Z,6.10
2018-02-26T06:06:34.811Z,4.17
2018-02-26T06:09:03.138Z,6.90
2018-02-26T06:11:31.920Z,5.50
2018-02-26T06:14:00.250Z,5.90
2018-02-26T06:16:28.587Z,5.27
2018-02-26T06:18:56.929Z,6.27
2018-02-26T06:21:25.248Z,6.20
2018-02-26T06:23:53.661Z,7.50
2018-02-26T06:26:22.096Z,6.43
2018-02-26T06:28:50.487Z,6.27
2018-02-26T06:31:19.179Z,4.60
2018-02-26T06:33:48.174Z,5.07
2018-02-26T06:36:17.454Z,5.37
2018-02-26T06:38:45.864Z,5.57
2018-02-26T06:41:14.258Z,5.80
2018-02-26T06:43:42.653Z,6.17
2018-02-26T06:46:11.767Z,4.30
2018-02-26T06:48:40.880Z,5.00
2018-02-26T06:51:10.071Z,3.33
2018-02-26T06:53:38.501Z,3.70
2018-02-26T06:56:06.834Z,4.10
2018-02-26T06:58:35.146Z,4.33
2018-02-26T07:01:03.457Z,5.87
2018-02-26T07:03:32.534Z,5.47
2018-02-26T07:06:00.925Z,3.93
2018-02-26T07:08:29.271Z,3.13
2018-02-26T07:10:57.630Z,4.27
2018-02-26T07:13:26.004Z,6.00
2018-02-26T07:15:54.601Z,4.07
2018-02-26T07:18:23.912Z,6.07
2018-02-26T07:20:53.213Z,5.00
2018-02-26T07:23:21.702Z,4.67
2018-02-26T07:25:51.080Z,6.07
2018-02-26T07:28:19.739Z,6.23
2018-02-26T07:30:48.991Z,5.37
2018-02-26T07:33:17.346Z,3.37
2018-02-26T07:35:45.750Z,3.77
2018-02-26T07:38:14.061Z,5.07
2018-02-26T07:40:43.555Z,4.90
2018-02-26T07:43:11.866Z,3.63
2018-02-26T07:45:41.132Z,4.83
2018-02-26T07:48:09.464Z,3.63
2018-02-26T07:50:38.570Z,5.40
2018-02-26T07:53:07.719Z,4.60
2018-02-26T07:55:36.054Z,4.63
2018-02-26T07:58:04.407Z,5.37
2018-02-26T08:00:32.724Z,5.03
2018-02-26T08:03:01.035Z,3.97
2018-02-26T08:05:30.284Z,4.27
2018-02-26T08:07:58.622Z,5.70
2018-02-26T08:10:26.990Z,4.97
2018-02-26T08:12:55.319Z,4.20
2018-02-26T08:15:23.983Z,4.60
2018-02-26T08:17:52.805Z,2.37
2018-02-26T08:20:21.941Z,4.57
2018-02-26T08:22:51.225Z,4.70
2018-02-26T08:25:19.579Z,4.17
2018-02-26T08:27:48.083Z,4.93
2018-02-26T08:30:16.518Z,4.53
2018-02-26T08:32:44.861Z,4.17
2018-02-26T08:35:13.208Z,3.27
2018-02-26T08:37:41.549Z,4.80
2018-02-26T08:40:09.870Z,2.80
2018-02-26T08:42:39.339Z,3.53
2018-02-26T08:45:07.674Z,5.43
2018-02-26T08:47:36.106Z,3.70
2018-02-26T08:50:04.441Z,3.57
2018-02-26T08:52:32.782Z,4.30
2018-02-26T08:55:01.952Z,4.03
2018-02-26T08:57:30.278Z,3.40
2018-02-26T08:59:58.618Z,3.40
2018-02-26T09:02:26.922Z,3.30
2018-02-26T09:04:55.399Z,3.27
2018-02-26T09:07:24.013Z,3.23
2018-02-26T09:09:52.383Z,2.97
2018-02-26T09:12:20.712Z,3.23
2018-02-26T09:14:49.106Z,2.40
2018-02-26T09:17:17.507Z,2.63
2018-02-26T09:19:46.985Z,2.80
2018-02-26T09:22:15.320Z,2.83
2018-02-26T09:24:43.619Z,3.43
2018-02-26T09:27:11.955Z,3.57
2018-02-26T09:29:40.504Z,3.23
2018-02-26T09:32:09.855Z,2.70
2018-02-26T09:34:38.427Z,2.70
2018-02-26T09:37:07.041Z,2.30
2018-02-26T09:39:35.970Z,2.13
2018-02-26T09:42:06.144Z,1.53
2018-02-26T09:44:36.002Z,2.43
2018-02-26T09:47:04.866Z,2.50
2018-02-26T09:49:39.378Z,2.33
2018-02-26T09:52:07.819Z,4.40
2018-02-26T09:54:36.140Z,2.13
2018-02-26T09:57:04.457Z,4.13
2018-02-26T09:59:32.882Z,2.37
2018-02-26T10:02:01.257Z,2.93
2018-02-26T10:04:29.621Z,1.57
2018-02-26T10:06:58.042Z,2.10
2018-02-26T10:09:26.643Z,2.00
2018-02-26T10:11:54.992Z,1.47
2018-02-26T10:14:23.404Z,1.53
2018-02-26T10:16:51.831Z,2.80
2018-02-26T10:19:20.162Z,1.87
2018-02-26T10:21:48.573Z,3.23
2018-02-26T10:24:17.871Z,1.60
2018-02-26T10:26:46.275Z,2.50
2018-02-26T10:29:14.606Z,2.83
2018-02-26T10:31:43.022Z,2.60
2018-02-26T10:34:12.095Z,2.20
2018-02-26T10:36:40.469Z,2.50
2018-02-26T10:39:08.977Z,2.30
2018-02-26T10:41:37.291Z,2.37
2018-02-26T10:44:06.424Z,2.67
2018-02-26T10:46:34.752Z,3.20
2018-02-26T10:49:03.107Z,2.60
2018-02-26T10:51:31.589Z,3.33
2018-02-26T10:54:00.667Z,1.77
2018-02-26T10:56:28.994Z,2.07
2018-02-26T10:58:58.179Z,4.00
2018-02-26T11:01:26.523Z,3.27
2018-02-26T11:03:54.927Z,4.20
2018-02-26T11:06:23.312Z,3.27
2018-02-26T11:08:51.649Z,3.73
2018-02-26T11:11:20.790Z,3.97
2018-02-26T11:13:49.221Z,3.17
2018-02-26T11:16:17.709Z,3.27
2018-02-26T11:18:46.025Z,2.57
2018-02-26T11:21:14.350Z,1.57
2018-02-26T11:23:42.703Z,3.10
2018-02-26T11:26:11.127Z,3.10
2018-02-26T11:28:40.336Z,3.10
2018-02-26T11:31:09.442Z,2.57
2018-02-26T11:33:38.518Z,2.50
2018-02-26T11:36:06.838Z,1.03
2018-02-26T11:38:35.181Z,2.37
2018-02-26T11:41:03.548Z,2.83
2018-02-26T11:43:31.972Z,2.03
2018-02-26T11:46:00.401Z,2.30
2018-02-26T11:48:29.534Z,2.43
2018-02-26T11:50:57.876Z,2.50
2018-02-26T11:53:26.267Z,2.63
2018-02-26T11:55:54.648Z,1.43
2018-02-26T11:58:23.058Z,2.50
2018-02-26T12:00:51.406Z,2.00
2018-02-26T12:03:19.842Z,1.90
2018-02-26T12:05:48.295Z,1.80
2018-02-26T12:08:16.731Z,1.70
2018-02-26T12:10:45.085Z,2.20
2018-02-26T12:13:13.419Z,1.70
2018-02-26T12:15:41.971Z,1.13
2018-02-26T12:18:10.356Z,1.80
2018-02-26T12:20:38.689Z,2.20
2018-02-26T12:23:06.990Z,1.83
2018-02-26T12:25:35.325Z,1.43
2018-02-26T12:28:03.668Z,1.60
2018-02-26T12:30:32.067Z,1.80
2018-02-26T12:33:00.421Z,1.83
2018-02-26T12:35:28.784Z,2.00
2018-02-26T12:37:57.197Z,1.73
2018-02-26T12:40:25.576Z,1.97
2018-02-26T12:42:54.289Z,1.30
2018-02-26T12:45:22.668Z,1.03
2018-02-26T12:47:50.983Z,1.47
2018-02-26T12:50:19.363Z,1.20
2018-02-26T12:52:47.820Z,1.10
2018-02-26T12:55:16.196Z,1.60
2018-02-26T12:57:44.628Z,0.70
2018-02-26T13:00:12.930Z,1.20
2018-02-26T13:02:41.316Z,1.20
2018-02-26T13:05:10.389Z,1.57
2018-02-26T13:07:39.597Z,1.57
2018-02-26T13:10:08.658Z,2.03
2018-02-26T13:12:36.981Z,1.33
2018-02-26T13:15:06.068Z,1.20
2018-02-26T13:17:34.430Z,1.90
2018-02-26T13:20:02.840Z,2.30
2018-02-26T13:22:31.176Z,2.73
2018-02-26T13:24:59.495Z,2.37
2018-02-26T13:27:27.843Z,1.87
2018-02-26T13:29:56.155Z,0.80
2018-02-26T13:32:25.403Z,1.23
2018-02-26T13:34:53.746Z,1.23
2018-02-26T13:37:22.851Z,1.27
2018-02-26T13:39:51.298Z,1.23
2018-02-26T13:42:19.707Z,1.20
2018-02-26T13:44:48.206Z,1.23
2018-02-26T13:47:16.574Z,1.53
2018-02-26T13:49:44.836Z,0.70
2018-02-26T13:52:13.145Z,0.80
2018-02-26T13:54:41.523Z,1.53
2018-02-26T13:57:09.915Z,1.40
2018-02-26T13:59:38.222Z,1.00
2018-02-26T14:02:06.532Z,1.13
2018-02-26T14:04:34.864Z,1.93
2018-02-26T14:07:03.956Z,0.80
2018-02-26T14:09:32.454Z,1.07
2018-02-26T14:12:00.766Z,0.80
2018-02-26T14:14:29.869Z,0.50
2018-02-26T14:16:58.218Z,0.70
2018-02-26T14:19:26.535Z,1.40
2018-02-26T14:21:54.944Z,0.60
2018-02-26T14:24:23.430Z,0.90
2018-02-26T14:26:51.859Z,0.83
2018-02-26T14:29:20.300Z,1.00
2018-02-26T14:31:48.666Z,0.97
2018-02-26T14:34:17.147Z,1.00
2018-02-26T14:36:45.771Z,0.77
2018-02-26T14:39:14.150Z,1.13
2018-02-26T14:41:42.540Z,1.97
2018-02-26T14:44:10.867Z,1.30
2018-02-26T14:46:39.202Z,1.20
2018-02-26T14:49:07.524Z,1.10
2018-02-26T14:51:35.892Z,0.80
2018-02-26T14:54:04.261Z,1.00
2018-02-26T14:56:33.449Z,0.90
2018-02-26T14:59:01.792Z,1.13
2018-02-26T15:01:30.264Z,1.03
2018-02-26T15:03:58.682Z,1.07
2018-02-26T15:06:27.017Z,1.70
2018-02-26T15:08:55.343Z,1.50
2018-02-26T15:11:23.689Z,1.30
2018-02-26T15:13:52.052Z,1.20
2018-02-26T15:16:20.448Z,0.90
2018-02-26T15:18:48.823Z,1.40
2018-02-26T15:21:17.217Z,1.20
2018-02-26T15:23:45.545Z,1.40
2018-02-26T15:26:13.924Z,1.40
2018-02-26T15:28:42.851Z,1.20
2018-02-26T15:31:11.148Z,1.90
2018-02-26T15:33:39.530Z,1.27
2018-02-26T15:36:07.874Z,1.00
2018-02-26T15:38:36.205Z,1.20
2018-02-26T15:41:04.567Z,1.13
2018-02-26T15:43:32.892Z,1.43
2018-02-26T15:46:01.585Z,1.63
2018-02-26T15:48:29.893Z,1.03
2018-02-26T15:51:00.322Z,1.43
2018-02-26T15:53:29.847Z,1.10
2018-02-26T15:55:58.188Z,1.07
2018-02-26T15:58:26.598Z,1.00
2018-02-26T16:00:54.940Z,0.90
2018-02-26T16:03:24.026Z,1.23
2018-02-26T16:05:54.074Z,0.90
2018-02-26T16:08:23.204Z,1.20
2018-02-26T16:10:51.641Z,1.50
2018-02-26T16:13:20.058Z,1.00
2018-02-26T16:15:48.433Z,1.00
2018-02-26T16:18:16.767Z,1.30
2018-02-26T16:20:45.171Z,1.30
2018-02-26T16:23:13.563Z,2.13
2018-02-26T16:25:41.895Z,1.83
2018-02-26T16:28:11.037Z,1.60
2018-02-26T16:30:40.174Z,1.17
2018-02-26T16:33:08.503Z,1.40
2018-02-26T16:35:36.874Z,1.70
2018-02-26T16:38:05.227Z,1.50
2018-02-26T16:40:34.290Z,1.20
2018-02-26T16:43:02.639Z,1.33
2018-02-26T16:45:31.076Z,1.00
2018-02-26T16:47:59.424Z,1.10
2018-02-26T16:50:27.723Z,1.10
2018-02-26T16:52:56.220Z,1.10
2018-02-26T16:55:24.570Z,1.33
2018-02-26T16:57:52.891Z,1.10
2018-02-26T17:00:21.233Z,1.20
2018-02-26T17:02:49.587Z,1.17
2018-02-26T17:05:18.081Z,1.70
2018-02-26T17:07:46.396Z,1.40
2018-02-26T17:10:14.728Z,1.70
2018-02-26T17:12:43.923Z,1.20
2018-02-26T17:15:12.223Z,1.43
2018-02-26T17:17:41.673Z,2.50
2018-02-26T17:20:10.808Z,1.60
2018-02-26T17:22:39.182Z,1.33
2018-02-26T17:25:07.542Z,1.60
2018-02-26T17:27:36.027Z,1.67
2018-02-26T17:30:05.111Z,1.57
2018-02-26T17:32:33.529Z,1.50
2018-02-26T17:35:02.615Z,1.83
2018-02-26T17:37:31.026Z,1.87
2018-02-26T17:40:00.143Z,1.73
2018-02-26T17:42:29.296Z,2.00
2018-02-26T17:44:57.620Z,1.30
2018-02-26T17:47:25.954Z,1.43
2018-02-26T17:49:54.323Z,1.87
2018-02-26T17:52:22.627Z,2.63
2018-02-26T17:54:51.088Z,2.33
2018-02-26T17:57:19.552Z,1.53
2018-02-26T17:59:47.923Z,1.63
2018-02-26T18:02:16.456Z,1.70
2018-02-26T18:04:44.838Z,2.00
2018-02-26T18:07:13.277Z,2.33
2018-02-26T18:09:42.397Z,2.10
2018-02-26T18:12:10.775Z,2.30
2018-02-26T18:14:40.008Z,2.13
2018-02-26T18:17:08.500Z,2.80
2018-02-26T18:19:37.076Z,1.73
2018-02-26T18:22:05.500Z,2.20
2018-02-26T18:24:33.851Z,1.83
2018-02-26T18:27:02.359Z,2.50
2018-02-26T18:59:03.312Z,2.10
2018-02-26T19:01:31.649Z,2.63
2018-02-26T19:03:59.950Z,3.20
2018-02-26T19:06:29.071Z,2.97
2018-02-26T19:08:57.486Z,3.10
2018-02-26T19:11:26.734Z,3.73
2018-02-26T19:13:55.098Z,2.50
2018-02-26T19:16:23.458Z,3.60
2018-02-26T19:18:52.620Z,3.27
2018-02-26T19:21:21.158Z,2.30
2018-02-26T19:23:49.597Z,4.40
2018-02-26T19:26:17.986Z,3.30
2018-02-26T19:28:46.329Z,3.60
2018-02-26T19:31:14.706Z,4.93
2018-02-26T19:33:43.139Z,4.53
2018-02-26T19:36:11.474Z,4.83
2018-02-26T19:38:45.623Z,3.40
2018-02-26T19:41:14.760Z,4.53
2018-02-26T19:43:43.107Z,3.50
2018-02-26T19:46:11.514Z,3.23
2018-02-26T19:48:39.853Z,4.20
2018-02-26T19:51:08.673Z,3.70
2018-02-26T19:53:36.972Z,3.70
2018-02-26T19:56:05.483Z,3.30
2018-02-26T19:58:33.825Z,4.93
2018-02-26T20:01:02.199Z,4.23
2018-02-26T20:03:30.591Z,3.70
2018-02-26T20:05:58.947Z,4.53
2018-02-26T20:08:27.286Z,3.60
2018-02-26T20:10:55.687Z,4.23
2018-02-26T20:13:24.042Z,4.13
2018-02-26T20:15:53.239Z,4.17
2018-02-26T20:18:22.338Z,4.60
2018-02-26T20:20:50.722Z,5.13
2018-02-26T20:23:19.125Z,5.37
2018-02-26T20:25:47.619Z,5.73
2018-02-26T20:28:16.847Z,4.20
2018-02-26T20:30:45.183Z,4.10
2018-02-26T20:33:13.630Z,6.10
2018-02-26T20:35:41.980Z,4.97
2018-02-26T20:38:10.323Z,6.07
2018-02-26T20:40:39.910Z,3.80
2018-02-26T20:43:08.254Z,5.10
2018-02-26T20:45:36.587Z,5.17
2018-02-26T20:48:04.936Z,3.30
2018-02-26T20:50:33.267Z,3.93
2018-02-26T20:53:01.624Z,5.13
2018-02-26T20:55:30.053Z,5.00
2018-02-26T20:57:58.435Z,3.57
2018-02-26T21:00:26.798Z,4.80
2018-02-26T21:02:55.227Z,4.17
2018-02-26T21:05:23.769Z,3.37
2018-02-26T21:07:52.871Z,4.67
2018-02-26T21:10:22.020Z,1.60
2018-02-26T21:12:50.400Z,3.53
2018-02-26T21:15:18.871Z,5.03
2018-02-26T21:17:47.591Z,3.40
2018-02-26T21:20:15.920Z,5.10
2018-02-26T21:22:44.287Z,4.40
2018-02-26T21:25:12.719Z,3.87
2018-02-26T21:27:41.042Z,3.73
2018-02-26T21:30:09.431Z,3.23
2018-02-26T21:32:37.820Z,4.17
2018-02-26T21:35:06.891Z,3.60
2018-02-26T21:37:35.969Z,3.70
2018-02-26T21:40:04.325Z,2.20
2018-02-26T21:42:33.498Z,1.70
2018-02-26T21:45:01.818Z,2.07
2018-02-26T21:47:30.942Z,2.10
2018-02-26T21:50:00.038Z,1.70
2018-02-26T21:52:29.147Z,2.30
2018-02-26T21:54:58.619Z,1.80
2018-02-26T21:57:26.954Z,2.10
2018-02-26T21:59:56.031Z,2.30
2018-02-26T22:02:24.354Z,1.80
2018-02-26T22:04:53.430Z,2.43
2018-02-26T22:07:21.823Z,2.00
2018-02-26T22:09:51.030Z,0.67
2018-02-26T22:12:19.407Z,2.40
2018-02-26T22:14:47.740Z,2.17
2018-02-26T22:17:16.820Z,2.30
2018-02-26T22:19:45.319Z,1.07
2018-02-26T22:22:13.658Z,1.60
2018-02-26T22:24:42.000Z,2.50
2018-02-26T22:27:11.916Z,1.13
2018-02-26T22:29:39.449Z,2.40
2018-02-26T22:32:07.934Z,2.13
2018-02-26T22:34:37.025Z,1.40
2018-02-26T22:37:05.448Z,2.67
2018-02-26T22:39:33.764Z,2.00
2018-02-26T22:42:02.176Z,2.57
2018-02-26T22:44:30.533Z,2.27
2018-02-26T22:46:58.899Z,1.70
2018-02-26T22:49:28.038Z,2.73
2018-02-26T22:51:56.379Z,2.67
2018-02-26T22:54:24.802Z,2.67
2018-02-26T22:56:53.906Z,1.53
2018-02-26T22:59:23.038Z,1.20
2018-02-26T23:01:51.477Z,1.93
2018-02-26T23:04:19.821Z,2.87
2018-02-26T23:06:48.443Z,3.03
2018-02-26T23:09:17.679Z,2.90
2018-02-26T23:11:46.021Z,3.10
2018-02-26T23:14:14.366Z,7.27
2018-02-26T23:16:42.718Z,3.40
2018-02-26T23:19:11.103Z,3.30
2018-02-26T23:21:39.425Z,3.20
2018-02-26T23:24:07.781Z,3.63
2018-02-26T23:26:36.124Z,3.67
2018-02-26T23:29:04.647Z,3.00
2018-02-26T23:31:33.778Z,4.10
2018-02-26T23:34:02.102Z,3.90
2018-02-26T23:36:30.450Z,3.70
2018-02-26T23:38:58.757Z,4.40
2018-02-26T23:41:27.088Z,3.53
2018-02-26T23:43:55.499Z,4.20
2018-02-26T23:46:24.578Z,4.70
2018-02-26T23:48:52.934Z,3.87
2018-02-26T23:51:21.334Z,3.80
2018-02-26T23:53:49.687Z,4.07
2018-02-26T23:56:18.857Z,4.47
2018-02-26T23:58:47.220Z,4.63
